createdAt,value
2019-06-27T00:00:18.967Z,21.80
2019-06-27T00:02:52.587Z,21.70
2019-06-27T00:05:25.853Z,21.70
2019-06-27T00:07:59.482Z,21.70
2019-06-27T00:10:34.438Z,21.80
2019-06-27T00:13:08.642Z,21.70
2019-06-27T00:15:41.601Z,21.70
2019-06-27T00:18:15.055Z,21.60
2019-06-27T00:20:48.560Z,21.50
2019-06-27T00:23:46.004Z,21.40
2019-06-27T00:26:20.351Z,21.30
2019-06-27T00:28:54.571Z,21.30
2019-06-27T00:31:28.318Z,21.30
2019-06-27T00:34:01.925Z,21.30
2019-06-27T00:36:35.182Z,21.20
2019-06-27T00:39:08.600Z,21.20
2019-06-27T00:41:42.165Z,21.10
2019-06-27T00:44:16.185Z,21.00
2019-06-27T00:46:50.633Z,21.00
2019-06-27T00:49:23.937Z,20.90
2019-06-27T00:51:56.953Z,20.80
2019-06-27T00:54:29.871Z,20.80
2019-06-27T00:57:13.417Z,20.70
2019-06-27T00:59:38.676Z,20.70
2019-06-27T01:02:12.353Z,20.60
2019-06-27T01:04:45.743Z,20.60
2019-06-27T01:07:19.423Z,20.60
2019-06-27T01:09:52.976Z,20.60
2019-06-27T01:12:26.493Z,20.50
2019-06-27T01:15:00.024Z,20.40
2019-06-27T01:17:34.422Z,20.40
2019-06-27T01:20:08.668Z,20.40
2019-06-27T01:22:41.947Z,20.40
2019-06-27T01:25:14.944Z,20.40
2019-06-27T01:27:48.508Z,20.30
2019-06-27T01:30:22.549Z,20.40
2019-06-27T01:32:56.260Z,20.30
2019-06-27T01:35:29.507Z,20.20
2019-06-27T01:38:02.514Z,20.20
2019-06-27T01:40:35.856Z,20.20
2019-06-27T01:43:08.807Z,20.30
2019-06-27T01:45:48.101Z,20.10
2019-06-27T01:48:21.082Z,20.10
2019-06-27T01:50:54.519Z,20.00
2019-06-27T01:53:27.909Z,20.00
2019-06-27T01:56:01.675Z,20.10
2019-06-27T01:58:34.660Z,20.10
2019-06-27T02:01:08.808Z,20.00
2019-06-27T02:03:42.094Z,19.90
2019-06-27T02:06:15.695Z,19.90
2019-06-27T02:08:49.342Z,19.80
2019-06-27T02:11:30.081Z,19.70
2019-06-27T02:14:03.958Z,19.40
2019-06-27T02:16:37.652Z,19.30
2019-06-27T02:19:10.629Z,19.20
2019-06-27T02:21:45.760Z,19.20
2019-06-27T02:24:19.245Z,19.10
2019-06-27T02:26:53.524Z,19.10
2019-06-27T02:29:26.588Z,19.20
2019-06-27T02:32:00.080Z,19.30
2019-06-27T02:34:33.884Z,19.40
2019-06-27T02:37:07.127Z,19.40
2019-06-27T02:39:40.691Z,19.30
2019-06-27T02:42:17.558Z,19.30
2019-06-27T02:44:51.343Z,19.30
2019-06-27T02:47:24.779Z,19.20
2019-06-27T02:49:58.401Z,19.20
2019-06-27T02:52:32.070Z,19.10
2019-06-27T02:55:05.465Z,19.10
2019-06-27T02:57:38.513Z,19.10
2019-06-27T03:00:12.880Z,19.10
2019-06-27T03:02:46.302Z,19.00
2019-06-27T03:05:20.790Z,19.10
2019-06-27T03:07:54.707Z,19.10
2019-06-27T03:10:28.179Z,19.00
2019-06-27T03:13:01.252Z,19.00
2019-06-27T03:15:34.385Z,19.00
2019-06-27T03:18:08.093Z,19.00
2019-06-27T03:20:41.760Z,18.90
2019-06-27T03:23:15.160Z,18.90
2019-06-27T03:25:48.551Z,18.80
2019-06-27T03:28:22.000Z,18.70
2019-06-27T03:30:54.950Z,18.70
2019-06-27T03:33:28.588Z,18.60
2019-06-27T03:36:02.217Z,18.50
2019-06-27T03:38:35.541Z,18.50
2019-06-27T03:41:09.347Z,18.30
2019-06-27T03:43:42.161Z,18.30
2019-06-27T03:46:15.846Z,18.30
2019-06-27T03:48:48.741Z,18.40
2019-06-27T03:51:21.606Z,18.40
2019-06-27T03:53:54.807Z,18.40
2019-06-27T03:56:28.073Z,18.30
2019-06-27T03:59:12.058Z,18.30
2019-06-27T04:01:37.609Z,18.30
2019-06-27T04:04:11.042Z,18.40
2019-06-27T04:06:44.779Z,18.30
2019-06-27T04:09:19.147Z,18.40
2019-06-27T04:11:53.813Z,18.40
2019-06-27T04:14:30.473Z,18.30
2019-06-27T04:17:04.090Z,18.30
2019-06-27T04:19:36.905Z,18.20
2019-06-27T04:22:10.278Z,18.30
2019-06-27T04:24:43.775Z,18.30
2019-06-27T04:27:17.366Z,18.40
2019-06-27T04:29:50.547Z,18.40
2019-06-27T04:32:23.926Z,18.40
2019-06-27T04:34:57.773Z,18.50
2019-06-27T04:37:31.038Z,18.60
2019-06-27T04:40:04.615Z,18.80
2019-06-27T04:42:38.211Z,18.80
2019-06-27T04:45:13.520Z,18.90
2019-06-27T04:47:47.205Z,18.90
2019-06-27T04:50:22.634Z,19.00
2019-06-27T04:52:56.193Z,19.00
2019-06-27T04:55:29.762Z,19.20
2019-06-27T04:58:03.397Z,19.20
2019-06-27T05:00:38.584Z,19.20
2019-06-27T05:03:11.940Z,19.40
2019-06-27T05:05:45.874Z,19.50
2019-06-27T05:08:21.788Z,19.70
2019-06-27T05:10:55.162Z,19.90
2019-06-27T05:13:29.682Z,20.00
2019-06-27T05:16:03.252Z,20.20
2019-06-27T05:18:36.720Z,20.40
2019-06-27T05:21:10.333Z,20.50
2019-06-27T05:23:44.424Z,20.70
2019-06-27T05:26:18.333Z,21.00
2019-06-27T05:28:52.114Z,21.10
2019-06-27T05:31:25.975Z,21.30
2019-06-27T05:33:59.463Z,21.40
2019-06-27T05:36:33.411Z,21.60
2019-06-27T05:39:07.610Z,21.70
2019-06-27T05:41:41.215Z,21.90
2019-06-27T05:44:15.195Z,22.10
2019-06-27T05:46:49.016Z,22.30
2019-06-27T05:49:22.550Z,22.40
2019-06-27T05:51:56.073Z,22.70
2019-06-27T05:54:29.968Z,22.80
2019-06-27T05:57:03.928Z,23.10
2019-06-27T05:59:38.053Z,23.30
2019-06-27T06:02:14.754Z,23.50
2019-06-27T06:04:50.166Z,23.80
2019-06-27T06:07:24.517Z,23.90
2019-06-27T06:10:02.110Z,24.10
2019-06-27T06:12:35.301Z,24.30
2019-06-27T06:15:08.920Z,24.50
2019-06-27T06:17:42.432Z,24.60
2019-06-27T06:20:16.247Z,24.70
2019-06-27T06:22:50.901Z,24.90
2019-06-27T06:25:25.119Z,25.00
2019-06-27T06:27:58.538Z,25.20
2019-06-27T06:30:44.367Z,25.50
2019-06-27T06:33:11.657Z,25.70
2019-06-27T06:35:46.386Z,26.30
2019-06-27T06:38:21.724Z,26.80
2019-06-27T06:40:56.271Z,27.20
2019-06-27T06:43:31.118Z,27.80
2019-06-27T06:46:07.386Z,28.30
2019-06-27T06:48:41.472Z,28.80
2019-06-27T06:51:16.264Z,29.30
2019-06-27T06:53:50.001Z,29.70
2019-06-27T06:56:23.521Z,30.00
2019-06-27T06:58:57.567Z,30.30
2019-06-27T07:01:31.619Z,30.60
2019-06-27T07:04:05.425Z,30.80
2019-06-27T07:06:39.480Z,30.90
2019-06-27T07:09:13.077Z,31.10
2019-06-27T07:11:49.953Z,31.30
2019-06-27T07:14:27.227Z,31.50
2019-06-27T07:17:03.140Z,31.70
2019-06-27T07:19:37.845Z,31.80
2019-06-27T07:22:14.467Z,32.00
2019-06-27T07:24:49.874Z,32.30
2019-06-27T07:27:24.461Z,32.50
2019-06-27T07:29:59.358Z,32.60
2019-06-27T07:32:33.010Z,32.80
2019-06-27T07:35:06.989Z,33.20
2019-06-27T07:37:41.423Z,33.30
2019-06-27T07:40:17.086Z,33.30
2019-06-27T07:42:51.117Z,33.60
2019-06-27T07:45:25.037Z,34.00
2019-06-27T07:47:59.474Z,33.80
2019-06-27T07:50:33.728Z,34.00
2019-06-27T07:53:09.735Z,34.10
2019-06-27T07:55:43.566Z,34.50
2019-06-27T07:58:17.402Z,34.80
2019-06-27T08:00:51.776Z,35.20
2019-06-27T08:03:25.280Z,35.00
2019-06-27T08:05:59.421Z,35.50
2019-06-27T08:08:33.522Z,36.00
2019-06-27T08:11:07.448Z,36.00
2019-06-27T08:13:41.228Z,35.90
2019-06-27T08:16:15.115Z,35.90
2019-06-27T08:18:48.472Z,35.90
2019-06-27T08:21:22.882Z,36.40
2019-06-27T08:23:56.514Z,36.50
2019-06-27T08:26:30.349Z,36.80
2019-06-27T08:29:08.421Z,36.60
2019-06-27T08:31:51.321Z,36.40
2019-06-27T08:34:21.253Z,36.30
2019-06-27T08:36:55.086Z,36.60
2019-06-27T08:39:28.395Z,37.10
2019-06-27T08:42:02.046Z,37.10
2019-06-27T08:44:35.965Z,37.50
2019-06-27T08:47:09.756Z,37.80
2019-06-27T08:49:45.255Z,38.00
2019-06-27T08:52:19.542Z,38.20
2019-06-27T08:54:53.246Z,38.40
2019-06-27T08:57:26.471Z,38.80
2019-06-27T09:00:00.079Z,39.10
2019-06-27T09:02:33.394Z,39.20
2019-06-27T09:05:06.738Z,39.30
2019-06-27T09:07:43.933Z,39.30
2019-06-27T09:10:20.974Z,39.20
2019-06-27T09:12:54.715Z,39.20
2019-06-27T09:15:29.230Z,39.20
2019-06-27T09:18:02.784Z,39.40
2019-06-27T09:20:36.275Z,39.20
2019-06-27T09:23:12.914Z,39.50
2019-06-27T09:25:46.693Z,39.70
2019-06-27T09:28:22.022Z,39.40
2019-06-27T09:30:56.448Z,39.70
2019-06-27T09:33:30.587Z,40.10
2019-06-27T09:36:06.301Z,39.70
2019-06-27T09:38:40.348Z,39.70
2019-06-27T09:41:14.617Z,39.30
2019-06-27T09:43:49.031Z,38.50
2019-06-27T09:46:23.621Z,39.10
2019-06-27T09:48:59.181Z,39.60
2019-06-27T09:51:34.006Z,40.00
2019-06-27T09:54:07.566Z,40.50
2019-06-27T09:56:41.523Z,40.50
2019-06-27T09:59:15.826Z,40.80
2019-06-27T10:01:49.062Z,40.80
2019-06-27T10:04:24.910Z,40.60
2019-06-27T10:06:59.106Z,40.60
2019-06-27T10:09:33.224Z,40.70
2019-06-27T10:12:06.865Z,40.90
2019-06-27T10:14:41.209Z,41.60
2019-06-27T10:17:18.952Z,41.50
2019-06-27T10:19:52.815Z,41.20
2019-06-27T10:22:26.534Z,41.00
2019-06-27T10:24:59.839Z,41.20
2019-06-27T10:27:35.000Z,41.40
2019-06-27T10:30:09.701Z,41.50
2019-06-27T10:32:57.832Z,41.70
2019-06-27T10:35:18.809Z,41.70
2019-06-27T10:37:53.209Z,41.90
2019-06-27T10:40:28.031Z,42.00
2019-06-27T10:43:01.687Z,41.90
2019-06-27T10:45:35.339Z,41.90
2019-06-27T10:48:09.493Z,41.90
2019-06-27T10:50:46.270Z,41.80
2019-06-27T10:53:19.379Z,41.40
2019-06-27T10:55:53.611Z,41.50
2019-06-27T10:58:27.821Z,41.60
2019-06-27T11:01:01.204Z,41.70
2019-06-27T11:03:38.191Z,41.80
2019-06-27T11:06:16.716Z,41.70
2019-06-27T11:08:50.180Z,41.60
2019-06-27T11:11:28.254Z,41.90
2019-06-27T11:14:01.545Z,41.90
2019-06-27T11:16:35.206Z,42.10
2019-06-27T11:19:08.526Z,42.50
2019-06-27T11:21:42.132Z,42.50
2019-06-27T11:24:15.408Z,42.60
2019-06-27T11:26:50.219Z,42.80
2019-06-27T11:29:24.767Z,42.80
2019-06-27T11:31:58.285Z,42.50
2019-06-27T11:34:35.011Z,42.30
2019-06-27T11:37:08.744Z,42.20
2019-06-27T11:39:42.172Z,42.50
2019-06-27T11:42:16.634Z,42.60
2019-06-27T11:44:50.921Z,42.80
2019-06-27T11:47:25.375Z,43.20
2019-06-27T11:49:59.022Z,42.90
2019-06-27T11:52:34.110Z,42.50
2019-06-27T11:55:08.479Z,42.40
2019-06-27T11:57:42.956Z,42.80
2019-06-27T12:00:21.600Z,42.60
2019-06-27T12:02:57.369Z,42.80
2019-06-27T12:05:33.693Z,42.70
2019-06-27T12:08:26.603Z,42.90
2019-06-27T12:11:11.053Z,43.00
2019-06-27T12:13:47.798Z,42.90
2019-06-27T12:16:25.587Z,42.80
2019-06-27T12:19:01.506Z,42.90
2019-06-27T12:21:37.113Z,42.80
2019-06-27T12:24:11.434Z,42.70
2019-06-27T12:26:49.582Z,42.40
2019-06-27T12:29:23.502Z,42.60
2019-06-27T12:31:57.311Z,42.70
2019-06-27T12:34:30.940Z,42.80
2019-06-27T12:37:04.529Z,43.00
2019-06-27T12:39:38.368Z,43.00
2019-06-27T12:42:28.370Z,43.10
2019-06-27T12:44:50.289Z,43.10
2019-06-27T12:47:24.243Z,42.90
2019-06-27T12:50:02.645Z,43.00
2019-06-27T12:52:35.178Z,43.20
2019-06-27T12:55:10.394Z,43.40
2019-06-27T12:57:44.720Z,42.90
2019-06-27T13:00:18.620Z,43.10
2019-06-27T13:02:52.525Z,43.30
2019-06-27T13:05:28.093Z,43.40
2019-06-27T13:08:02.271Z,43.40
2019-06-27T13:10:45.307Z,43.10
2019-06-27T13:13:19.344Z,43.10
2019-06-27T13:15:59.600Z,42.80
2019-06-27T13:18:33.196Z,43.00
2019-06-27T13:21:06.972Z,42.50
2019-06-27T13:23:41.668Z,42.50
2019-06-27T13:26:15.553Z,42.80
2019-06-27T13:28:59.150Z,42.90
2019-06-27T13:31:32.911Z,43.00
2019-06-27T13:34:06.780Z,43.00
2019-06-27T13:36:40.870Z,43.00
2019-06-27T13:39:15.743Z,42.80
2019-06-27T13:41:51.163Z,43.10
2019-06-27T13:44:24.968Z,43.30
2019-06-27T13:47:03.918Z,43.30
2019-06-27T13:49:37.503Z,43.20
2019-06-27T13:52:12.102Z,43.20
2019-06-27T13:54:46.234Z,42.90
2019-06-27T13:57:21.934Z,42.90
2019-06-27T13:59:57.891Z,42.80
2019-06-27T14:02:33.069Z,42.80
2019-06-27T14:05:07.551Z,42.80
2019-06-27T14:07:42.078Z,42.70
2019-06-27T14:10:26.653Z,42.50
2019-06-27T14:13:01.683Z,42.40
2019-06-27T14:15:37.872Z,42.20
2019-06-27T14:18:12.633Z,42.40
2019-06-27T14:20:46.029Z,42.40
2019-06-27T14:23:25.211Z,42.30
2019-06-27T14:25:59.533Z,42.10
2019-06-27T14:28:34.022Z,42.20
2019-06-27T14:31:09.029Z,42.30
2019-06-27T14:33:43.584Z,42.30
2019-06-27T14:36:18.404Z,41.80
2019-06-27T14:38:52.579Z,41.90
2019-06-27T14:41:27.984Z,41.70
2019-06-27T14:44:03.641Z,41.60
2019-06-27T14:46:39.544Z,41.50
2019-06-27T14:49:13.904Z,41.50
2019-06-27T14:51:48.995Z,41.40
2019-06-27T14:54:23.204Z,41.50
2019-06-27T14:56:59.228Z,41.40
2019-06-27T14:59:34.154Z,41.20
2019-06-27T15:02:08.541Z,41.20
2019-06-27T15:04:45.075Z,41.10
2019-06-27T15:07:22.132Z,40.80
2019-06-27T15:09:57.255Z,40.80
2019-06-27T15:12:35.515Z,40.90
2019-06-27T15:15:12.952Z,40.80
2019-06-27T15:17:47.874Z,40.80
2019-06-27T15:20:22.206Z,40.80
2019-06-27T15:22:59.011Z,40.70
2019-06-27T15:25:33.681Z,40.50
2019-06-27T15:28:07.671Z,40.50
2019-06-27T15:30:41.678Z,40.30
2019-06-27T15:33:18.488Z,40.10
2019-06-27T15:35:53.176Z,40.10
2019-06-27T15:38:27.358Z,40.00
2019-06-27T15:41:01.178Z,40.00
2019-06-27T15:43:35.234Z,40.00
2019-06-27T15:46:09.060Z,40.00
2019-06-27T15:48:45.012Z,40.10
2019-06-27T15:51:19.076Z,40.10
2019-06-27T15:53:53.025Z,39.90
2019-06-27T15:56:27.124Z,39.80
2019-06-27T15:59:03.578Z,39.80
2019-06-27T16:01:36.523Z,39.70
2019-06-27T16:04:24.460Z,39.60
2019-06-27T16:06:46.387Z,39.60
2019-06-27T16:09:20.681Z,39.40
2019-06-27T16:11:54.986Z,39.40
2019-06-27T16:14:29.323Z,39.30
2019-06-27T16:17:04.179Z,39.20
2019-06-27T16:19:38.134Z,39.10
2019-06-27T16:22:12.572Z,39.10
2019-06-27T16:24:45.956Z,38.90
2019-06-27T16:27:19.667Z,38.90
2019-06-27T16:29:53.956Z,38.80
2019-06-27T16:32:27.563Z,38.70
2019-06-27T16:35:03.213Z,38.60
2019-06-27T16:37:37.684Z,38.60
2019-06-27T16:40:12.803Z,38.50
2019-06-27T16:42:47.381Z,38.50
2019-06-27T16:45:21.255Z,38.30
2019-06-27T16:47:55.859Z,38.30
2019-06-27T16:50:29.636Z,38.20
2019-06-27T16:53:03.946Z,38.00
2019-06-27T16:55:37.869Z,37.90
2019-06-27T16:58:13.683Z,37.90
2019-06-27T17:00:48.386Z,37.80
2019-06-27T17:03:25.147Z,37.70
2019-06-27T17:05:59.242Z,37.70
2019-06-27T17:08:34.532Z,37.60
2019-06-27T17:11:09.167Z,37.50
2019-06-27T17:13:45.632Z,37.40
2019-06-27T17:16:22.249Z,37.30
2019-06-27T17:18:55.815Z,37.10
2019-06-27T17:21:30.986Z,36.80
2019-06-27T17:24:09.350Z,36.50
2019-06-27T17:26:43.943Z,36.30
2019-06-27T17:29:21.379Z,35.90
2019-06-27T17:31:56.608Z,35.50
2019-06-27T17:34:33.019Z,35.10
2019-06-27T17:37:08.770Z,34.70
2019-06-27T17:39:47.149Z,34.40
2019-06-27T17:42:23.022Z,34.30
2019-06-27T17:44:58.669Z,34.20
2019-06-27T17:47:33.512Z,34.30
2019-06-27T17:50:11.637Z,34.30
2019-06-27T17:52:47.892Z,34.30
2019-06-27T17:55:25.616Z,34.20
2019-06-27T17:58:01.596Z,34.30
2019-06-27T18:00:39.039Z,34.30
2019-06-27T18:03:15.095Z,34.00
2019-06-27T18:05:48.836Z,34.20
2019-06-27T18:08:23.419Z,34.30
2019-06-27T18:10:58.392Z,34.00
2019-06-27T18:13:32.671Z,33.70
2019-06-27T18:16:07.016Z,33.40
2019-06-27T18:18:42.038Z,33.10
2019-06-27T18:21:16.117Z,33.00
2019-06-27T18:23:50.699Z,32.70
2019-06-27T18:26:25.658Z,32.50
2019-06-27T18:29:00.611Z,32.10
2019-06-27T18:31:35.253Z,31.90
2019-06-27T18:34:11.109Z,31.70
2019-06-27T18:36:45.081Z,31.60
2019-06-27T18:39:20.315Z,31.40
2019-06-27T18:41:54.653Z,31.30
2019-06-27T18:44:30.566Z,31.10
2019-06-27T18:47:04.682Z,31.00
2019-06-27T18:49:41.085Z,31.00
2019-06-27T18:52:15.021Z,30.80
2019-06-27T18:54:54.331Z,30.70
2019-06-27T18:57:30.887Z,30.60
2019-06-27T19:00:06.392Z,30.50
2019-06-27T19:02:42.046Z,30.30
2019-06-27T19:05:20.742Z,30.30
2019-06-27T19:07:55.128Z,30.00
2019-06-27T19:10:29.717Z,29.90
2019-06-27T19:13:11.485Z,29.80
2019-06-27T19:15:46.537Z,29.80
2019-06-27T19:18:38.001Z,29.70
2019-06-27T19:21:16.579Z,29.70
2019-06-27T19:24:05.351Z,29.70
2019-06-27T19:26:39.148Z,29.40
2019-06-27T19:29:13.105Z,29.00
2019-06-27T19:31:51.137Z,28.90
2019-06-27T19:34:25.315Z,28.90
2019-06-27T19:37:02.964Z,28.80
2019-06-27T19:39:37.634Z,28.70
2019-06-27T19:42:14.944Z,28.70
2019-06-27T19:44:50.391Z,28.60
2019-06-27T19:47:27.274Z,28.60
2019-06-27T19:50:01.453Z,28.50
2019-06-27T19:52:38.424Z,28.50
2019-06-27T19:55:14.068Z,28.50
2019-06-27T19:57:49.104Z,28.40
2019-06-27T20:00:24.919Z,28.30
2019-06-27T20:02:59.629Z,28.20
2019-06-27T20:05:35.554Z,28.00
2019-06-27T20:08:19.300Z,27.90
2019-06-27T20:10:48.908Z,27.80
2019-06-27T20:13:26.001Z,27.70
2019-06-27T20:16:01.191Z,27.70
2019-06-27T20:18:39.234Z,27.60
2019-06-27T20:21:22.102Z,27.50
2019-06-27T20:23:58.615Z,27.40
2019-06-27T20:26:33.895Z,27.20
2019-06-27T20:29:09.273Z,27.20
2019-06-27T20:31:44.962Z,27.20
2019-06-27T20:34:18.728Z,27.10
2019-06-27T20:37:02.231Z,27.00
2019-06-27T20:39:39.411Z,26.90
2019-06-27T20:42:16.340Z,26.70
2019-06-27T20:44:52.111Z,26.60
2019-06-27T20:47:28.416Z,26.60
2019-06-27T20:50:03.062Z,26.50
2019-06-27T20:52:38.068Z,26.40
2019-06-27T20:55:12.578Z,26.40
2019-06-27T20:57:47.616Z,26.30
2019-06-27T21:00:22.546Z,26.20
2019-06-27T21:02:56.538Z,26.20
2019-06-27T21:05:31.435Z,26.20
2019-06-27T21:08:09.301Z,26.20
2019-06-27T21:10:44.433Z,26.30
2019-06-27T21:13:20.271Z,26.20
2019-06-27T21:15:54.694Z,26.10
2019-06-27T21:18:31.240Z,26.10
2019-06-27T21:21:08.021Z,26.00
2019-06-27T21:23:46.312Z,25.90
2019-06-27T21:26:20.536Z,25.80
2019-06-27T21:28:57.213Z,25.80
2019-06-27T21:31:37.756Z,25.70
2019-06-27T21:34:15.450Z,25.70
2019-06-27T21:36:50.057Z,25.70
2019-06-27T21:39:25.094Z,25.60
2019-06-27T21:42:00.354Z,25.60
2019-06-27T21:44:36.921Z,25.50
2019-06-27T21:47:12.456Z,25.40
2019-06-27T21:49:49.149Z,25.40
2019-06-27T21:52:23.236Z,25.30
2019-06-27T21:54:57.304Z,25.30
2019-06-27T21:57:31.295Z,25.30
2019-06-27T22:00:05.479Z,25.10
2019-06-27T22:02:40.734Z,25.10
2019-06-27T22:05:16.523Z,25.10
2019-06-27T22:07:53.446Z,25.10
2019-06-27T22:10:26.160Z,25.00
2019-06-27T22:12:59.848Z,24.90
2019-06-27T22:15:33.374Z,24.90
2019-06-27T22:18:07.693Z,24.70
2019-06-27T22:20:41.934Z,24.60
2019-06-27T22:23:18.743Z,24.40
2019-06-27T22:25:53.104Z,24.30
2019-06-27T22:28:27.420Z,24.20
2019-06-27T22:31:01.520Z,24.10
2019-06-27T22:33:37.019Z,24.10
2019-06-27T22:36:11.119Z,24.10
2019-06-27T22:39:02.563Z,24.00
2019-06-27T22:41:53.558Z,24.00
2019-06-27T22:44:46.912Z,24.00
2019-06-27T22:47:38.432Z,24.00
2019-06-27T22:50:31.081Z,24.00
2019-06-27T22:53:08.787Z,24.10
2019-06-27T22:55:45.477Z,24.10
2019-06-27T22:58:18.905Z,24.20
2019-06-27T23:00:54.832Z,24.20
2019-06-27T23:03:28.585Z,24.10
2019-06-27T23:06:01.844Z,24.00
2019-06-27T23:08:35.699Z,23.70
2019-06-27T23:11:09.804Z,23.70
2019-06-27T23:13:43.997Z,23.60
2019-06-27T23:16:19.565Z,23.40
2019-06-27T23:18:53.640Z,23.30
2019-06-27T23:21:27.374Z,23.30
2019-06-27T23:24:00.525Z,23.30
2019-06-27T23:26:33.711Z,23.30
2019-06-27T23:29:07.352Z,23.30
2019-06-27T23:31:41.294Z,23.20
2019-06-27T23:34:14.524Z,23.20
2019-06-27T23:36:48.236Z,23.10
2019-06-27T23:39:21.799Z,23.10
2019-06-27T23:41:55.536Z,23.00
2019-06-27T23:44:29.212Z,22.90
2019-06-27T23:47:03.152Z,22.80
2019-06-27T23:49:36.238Z,22.80
2019-06-27T23:52:10.294Z,22.80
2019-06-27T23:54:43.289Z,22.80
2019-06-27T23:57:19.085Z,22.70
2019-06-27T23:59:52.629Z,22.60
